sensor_id;sensor_type;location;lat;lon;timestamp;temperature;humidity
39925;DHT22;25592;49.986;11.618;2023-01-20T00:02:40;3.20;99.90
39925;DHT22;25592;49.986;11.618;2023-01-20T00:05:26;3.20;99.90
39925;DHT22;25592;49.986;11.618;2023-01-20T00:08:11;3.30;99.90
39925;DHT22;25592;49.986;11.618;2023-01-20T00:10:57;3.20;99.90
39925;DHT22;25592;49.986;11.618;2023-01-20T00:13:42;3.20;99.90
39925;DHT22;25592;49.986;11.618;2023-01-20T00:16:28;3.20;99.90
39925;DHT22;25592;49.986;11.618;2023-01-20T00:19:16;3.20;99.90
39925;DHT22;25592;49.986;11.618;2023-01-20T00:22:01;3.20;99.90
39925;DHT22;25592;49.986;11.618;2023-01-20T00:24:46;3.20;99.90
39925;DHT22;25592;49.986;11.618;2023-01-20T00:27:32;3.20;99.90
39925;DHT22;25592;49.986;11.618;2023-01-20T00:30:17;3.20;99.90
39925;DHT22;25592;49.986;11.618;2023-01-20T00:33:03;3.30;99.90
39925;DHT22;25592;49.986;11.618;2023-01-20T00:35:48;3.20;99.90
39925;DHT22;25592;49.986;11.618;2023-01-20T00:38:33;3.20;99.90
39925;DHT22;25592;49.986;11.618;2023-01-20T00:41:19;3.30;99.90
39925;DHT22;25592;49.986;11.618;2023-01-20T00:44:04;3.30;99.90
39925;DHT22;25592;49.986;11.618;2023-01-20T00:46:50;3.20;99.90
39925;DHT22;25592;49.986;11.618;2023-01-20T00:49:35;3.30;99.90
39925;DHT22;25592;49.986;11.618;2023-01-20T00:52:21;3.30;99.90
39925;DHT22;25592;49.986;11.618;2023-01-20T00:55:06;3.40;99.90
39925;DHT22;25592;49.986;11.618;2023-01-20T00:57:51;3.30;99.90
39925;DHT22;25592;49.986;11.618;2023-01-20T01:00:37;3.30;99.90
39925;DHT22;25592;49.986;11.618;2023-01-20T01:03:22;3.30;99.90
39925;DHT22;25592;49.986;11.618;2023-01-20T01:06:11;3.30;99.90
39925;DHT22;25592;49.986;11.618;2023-01-20T01:08:57;3.30;99.90
39925;DHT22;25592;49.986;11.618;2023-01-20T01:11:42;3.30;99.90
39925;DHT22;25592;49.986;11.618;2023-01-20T01:14:30;3.30;99.90
39925;DHT22;25592;49.986;11.618;2023-01-20T01:17:16;3.30;99.90
39925;DHT22;25592;49.986;11.618;2023-01-20T01:20:01;3.30;99.90
39925;DHT22;25592;49.986;11.618;2023-01-20T01:22:48;3.30;99.90
39925;DHT22;25592;49.986;11.618;2023-01-20T01:25:33;3.30;99.90
39925;DHT22;25592;49.986;11.618;2023-01-20T01:28:19;3.30;99.90
39925;DHT22;25592;49.986;11.618;2023-01-20T01:31:05;3.30;99.90
39925;DHT22;25592;49.986;11.618;2023-01-20T01:33:51;3.30;99.90
39925;DHT22;25592;49.986;11.618;2023-01-20T01:36:36;3.30;99.90
39925;DHT22;25592;49.986;11.618;2023-01-20T01:39:22;3.30;99.90
39925;DHT22;25592;49.986;11.618;2023-01-20T01:42:15;3.30;99.90
39925;DHT22;25592;49.986;11.618;2023-01-20T01:48:04;3.30;99.90
39925;DHT22;25592;49.986;11.618;2023-01-20T01:51:05;3.30;99.90
39925;DHT22;25592;49.986;11.618;2023-01-20T01:53:55;3.30;99.90
39925;DHT22;25592;49.986;11.618;2023-01-20T01:56:42;3.30;99.90
39925;DHT22;25592;49.986;11.618;2023-01-20T01:59:29;3.30;99.90
39925;DHT22;25592;49.986;11.618;2023-01-20T02:02:14;3.30;99.90
39925;DHT22;25592;49.986;11.618;2023-01-20T02:05:05;3.30;99.90
39925;DHT22;25592;49.986;11.618;2023-01-20T02:07:51;3.30;99.90
39925;DHT22;25592;49.986;11.618;2023-01-20T02:10:36;3.30;99.90
39925;DHT22;25592;49.986;11.618;2023-01-20T02:13:22;3.30;99.90
39925;DHT22;25592;49.986;11.618;2023-01-20T02:16:30;3.30;99.90
39925;DHT22;25592;49.986;11.618;2023-01-20T02:19:43;3.30;99.90
39925;DHT22;25592;49.986;11.618;2023-01-20T02:29:07;3.30;99.90
39925;DHT22;25592;49.986;11.618;2023-01-20T02:32:31;3.40;99.90
39925;DHT22;25592;49.986;11.618;2023-01-20T02:39:49;3.30;99.90
39925;DHT22;25592;49.986;11.618;2023-01-20T02:42:21;3.30;99.90
39925;DHT22;25592;49.986;11.618;2023-01-20T02:51:35;3.30;99.90
39925;DHT22;25592;49.986;11.618;2023-01-20T02:54:24;3.30;99.90
39925;DHT22;25592;49.986;11.618;2023-01-20T02:57:13;3.30;99.90
39925;DHT22;25592;49.986;11.618;2023-01-20T03:00:05;3.30;99.90
39925;DHT22;25592;49.986;11.618;2023-01-20T03:02:53;3.30;99.90
39925;DHT22;25592;49.986;11.618;2023-01-20T03:05:43;3.30;99.90
39925;DHT22;25592;49.986;11.618;2023-01-20T03:08:31;3.30;99.90
39925;DHT22;25592;49.986;11.618;2023-01-20T03:11:17;3.30;99.90
39925;DHT22;25592;49.986;11.618;2023-01-20T03:14:11;3.30;99.90
39925;DHT22;25592;49.986;11.618;2023-01-20T03:16:57;3.30;99.90
39925;DHT22;25592;49.986;11.618;2023-01-20T03:19:43;3.30;99.90
39925;DHT22;25592;49.986;11.618;2023-01-20T03:22:29;3.30;99.90
39925;DHT22;25592;49.986;11.618;2023-01-20T03:25:15;3.40;99.90
39925;DHT22;25592;49.986;11.618;2023-01-20T03:28:02;3.30;99.90
39925;DHT22;25592;49.986;11.618;2023-01-20T03:30:47;3.30;99.90
39925;DHT22;25592;49.986;11.618;2023-01-20T03:33:33;3.30;99.90
39925;DHT22;25592;49.986;11.618;2023-01-20T03:36:20;3.30;99.90
39925;DHT22;25592;49.986;11.618;2023-01-20T03:39:07;3.30;99.90
39925;DHT22;25592;49.986;11.618;2023-01-20T03:42:06;3.20;99.90
39925;DHT22;25592;49.986;11.618;2023-01-20T03:45:00;3.30;99.90
39925;DHT22;25592;49.986;11.618;2023-01-20T03:50:55;3.20;99.90
39925;DHT22;25592;49.986;11.618;2023-01-20T03:53:55;3.20;99.90
39925;DHT22;25592;49.986;11.618;2023-01-20T03:56:58;3.30;99.90
39925;DHT22;25592;49.986;11.618;2023-01-20T03:59:49;3.20;99.90
39925;DHT22;25592;49.986;11.618;2023-01-20T04:02:37;3.20;99.90
39925;DHT22;25592;49.986;11.618;2023-01-20T04:05:24;3.20;99.90
39925;DHT22;25592;49.986;11.618;2023-01-20T04:08:13;3.10;99.90
39925;DHT22;25592;49.986;11.618;2023-01-20T04:11:04;3.20;99.90
39925;DHT22;25592;49.986;11.618;2023-01-20T04:13:50;3.20;99.90
39925;DHT22;25592;49.986;11.618;2023-01-20T04:16:35;3.20;99.90
39925;DHT22;25592;49.986;11.618;2023-01-20T04:19:21;3.20;99.90
39925;DHT22;25592;49.986;11.618;2023-01-20T04:22:13;3.30;99.90
39925;DHT22;25592;49.986;11.618;2023-01-20T04:27:52;3.10;99.90
39925;DHT22;25592;49.986;11.618;2023-01-20T04:30:38;3.10;99.90
39925;DHT22;25592;49.986;11.618;2023-01-20T04:33:23;3.20;99.90
39925;DHT22;25592;49.986;11.618;2023-01-20T04:36:08;3.20;99.90
39925;DHT22;25592;49.986;11.618;2023-01-20T04:38:54;3.20;99.90
39925;DHT22;25592;49.986;11.618;2023-01-20T04:41:39;3.20;99.90
39925;DHT22;25592;49.986;11.618;2023-01-20T04:44:25;3.20;99.90
39925;DHT22;25592;49.986;11.618;2023-01-20T04:47:10;3.20;99.90
39925;DHT22;25592;49.986;11.618;2023-01-20T04:49:55;3.20;99.90
39925;DHT22;25592;49.986;11.618;2023-01-20T04:52:41;3.20;99.90
39925;DHT22;25592;49.986;11.618;2023-01-20T04:55:27;3.10;99.90
39925;DHT22;25592;49.986;11.618;2023-01-20T04:58:12;3.20;99.90
39925;DHT22;25592;49.986;11.618;2023-01-20T05:01:01;3.20;99.90
39925;DHT22;25592;49.986;11.618;2023-01-20T05:03:46;3.10;99.90
39925;DHT22;25592;49.986;11.618;2023-01-20T05:06:32;3.00;99.90
39925;DHT22;25592;49.986;11.618;2023-01-20T05:09:18;3.10;99.90
39925;DHT22;25592;49.986;11.618;2023-01-20T05:12:03;3.10;99.90
39925;DHT22;25592;49.986;11.618;2023-01-20T05:14:49;3.10;99.90
39925;DHT22;25592;49.986;11.618;2023-01-20T05:17:34;3.20;99.90
39925;DHT22;25592;49.986;11.618;2023-01-20T05:20:19;3.20;99.90
39925;DHT22;25592;49.986;11.618;2023-01-20T05:23:05;3.10;99.90
39925;DHT22;25592;49.986;11.618;2023-01-20T05:25:51;3.10;99.90
39925;DHT22;25592;49.986;11.618;2023-01-20T05:28:38;3.10;99.90
39925;DHT22;25592;49.986;11.618;2023-01-20T05:31:23;3.10;99.90
39925;DHT22;25592;49.986;11.618;2023-01-20T05:34:09;3.10;99.90
39925;DHT22;25592;49.986;11.618;2023-01-20T05:36:55;3.10;99.90
39925;DHT22;25592;49.986;11.618;2023-01-20T05:39:40;3.20;99.90
39925;DHT22;25592;49.986;11.618;2023-01-20T05:42:25;3.00;99.90
39925;DHT22;25592;49.986;11.618;2023-01-20T05:45:11;3.00;99.90
39925;DHT22;25592;49.986;11.618;2023-01-20T05:47:58;3.10;99.90
39925;DHT22;25592;49.986;11.618;2023-01-20T05:50:43;3.10;99.90
39925;DHT22;25592;49.986;11.618;2023-01-20T05:53:29;3.00;99.90
39925;DHT22;25592;49.986;11.618;2023-01-20T05:56:14;3.00;99.90
39925;DHT22;25592;49.986;11.618;2023-01-20T05:59:00;3.10;99.90
39925;DHT22;25592;49.986;11.618;2023-01-20T06:01:45;3.10;99.90
39925;DHT22;25592;49.986;11.618;2023-01-20T06:04:30;3.00;99.90
39925;DHT22;25592;49.986;11.618;2023-01-20T06:07:16;3.20;99.90
39925;DHT22;25592;49.986;11.618;2023-01-20T06:10:01;3.10;99.90
39925;DHT22;25592;49.986;11.618;2023-01-20T06:12:51;3.10;99.90
39925;DHT22;25592;49.986;11.618;2023-01-20T06:15:39;3.00;99.90
39925;DHT22;25592;49.986;11.618;2023-01-20T06:18:24;3.20;99.90
39925;DHT22;25592;49.986;11.618;2023-01-20T06:21:10;3.10;99.90
39925;DHT22;25592;49.986;11.618;2023-01-20T06:23:55;3.10;99.90
39925;DHT22;25592;49.986;11.618;2023-01-20T06:26:41;3.20;99.90
39925;DHT22;25592;49.986;11.618;2023-01-20T06:29:26;3.00;99.90
39925;DHT22;25592;49.986;11.618;2023-01-20T06:32:11;3.10;99.90
39925;DHT22;25592;49.986;11.618;2023-01-20T06:34:57;3.10;99.90
39925;DHT22;25592;49.986;11.618;2023-01-20T06:37:42;3.00;99.90
39925;DHT22;25592;49.986;11.618;2023-01-20T06:40:27;2.90;99.90
39925;DHT22;25592;49.986;11.618;2023-01-20T06:43:13;2.90;99.90
39925;DHT22;25592;49.986;11.618;2023-01-20T06:46:03;2.90;99.90
39925;DHT22;25592;49.986;11.618;2023-01-20T06:48:49;2.90;99.90
39925;DHT22;25592;49.986;11.618;2023-01-20T06:51:34;3.00;99.90
39925;DHT22;25592;49.986;11.618;2023-01-20T06:54:19;2.90;99.90
39925;DHT22;25592;49.986;11.618;2023-01-20T06:57:05;2.90;99.90
39925;DHT22;25592;49.986;11.618;2023-01-20T06:59:50;2.90;99.90
39925;DHT22;25592;49.986;11.618;2023-01-20T07:02:36;3.00;99.90
39925;DHT22;25592;49.986;11.618;2023-01-20T07:05:21;2.90;99.90
39925;DHT22;25592;49.986;11.618;2023-01-20T07:08:06;3.00;99.90
39925;DHT22;25592;49.986;11.618;2023-01-20T07:10:52;3.00;99.90
39925;DHT22;25592;49.986;11.618;2023-01-20T07:13:37;3.10;99.90
39925;DHT22;25592;49.986;11.618;2023-01-20T07:16:23;3.10;99.90
39925;DHT22;25592;49.986;11.618;2023-01-20T07:19:08;3.10;99.90
39925;DHT22;25592;49.986;11.618;2023-01-20T07:21:54;3.20;99.90
39925;DHT22;25592;49.986;11.618;2023-01-20T07:24:40;3.10;99.90
39925;DHT22;25592;49.986;11.618;2023-01-20T07:27:25;3.20;99.90
39925;DHT22;25592;49.986;11.618;2023-01-20T07:30:11;3.10;99.90
39925;DHT22;25592;49.986;11.618;2023-01-20T07:32:56;3.10;99.90
39925;DHT22;25592;49.986;11.618;2023-01-20T07:35:41;3.10;99.90
39925;DHT22;25592;49.986;11.618;2023-01-20T07:38:27;3.20;99.90
39925;DHT22;25592;49.986;11.618;2023-01-20T07:41:13;3.20;99.90
39925;DHT22;25592;49.986;11.618;2023-01-20T07:44:02;3.20;99.90
39925;DHT22;25592;49.986;11.618;2023-01-20T07:46:47;3.10;99.90
39925;DHT22;25592;49.986;11.618;2023-01-20T07:49:35;3.10;99.90
39925;DHT22;25592;49.986;11.618;2023-01-20T07:52:20;3.20;99.90
39925;DHT22;25592;49.986;11.618;2023-01-20T07:55:06;3.10;99.90
39925;DHT22;25592;49.986;11.618;2023-01-20T07:57:51;3.20;99.90
39925;DHT22;25592;49.986;11.618;2023-01-20T08:00:37;3.20;99.90
39925;DHT22;25592;49.986;11.618;2023-01-20T08:03:22;3.20;99.90
39925;DHT22;25592;49.986;11.618;2023-01-20T08:06:12;3.00;99.90
39925;DHT22;25592;49.986;11.618;2023-01-20T08:09:00;3.00;99.90
39925;DHT22;25592;49.986;11.618;2023-01-20T08:11:45;3.10;99.90
39925;DHT22;25592;49.986;11.618;2023-01-20T08:14:31;3.10;99.90
39925;DHT22;25592;49.986;11.618;2023-01-20T08:17:16;3.10;99.90
39925;DHT22;25592;49.986;11.618;2023-01-20T08:20:02;3.20;99.90
39925;DHT22;25592;49.986;11.618;2023-01-20T08:22:48;3.20;99.90
39925;DHT22;25592;49.986;11.618;2023-01-20T08:25:33;3.10;99.90
39925;DHT22;25592;49.986;11.618;2023-01-20T08:28:19;3.30;99.90
39925;DHT22;25592;49.986;11.618;2023-01-20T08:31:12;3.20;99.90
39925;DHT22;25592;49.986;11.618;2023-01-20T08:33:58;3.20;99.90
39925;DHT22;25592;49.986;11.618;2023-01-20T08:36:44;3.20;99.90
39925;DHT22;25592;49.986;11.618;2023-01-20T08:39:29;3.20;99.90
39925;DHT22;25592;49.986;11.618;2023-01-20T08:42:15;3.20;99.90
39925;DHT22;25592;49.986;11.618;2023-01-20T08:45:01;3.30;99.90
39925;DHT22;25592;49.986;11.618;2023-01-20T08:47:46;3.40;99.90
39925;DHT22;25592;49.986;11.618;2023-01-20T08:50:31;3.50;99.90
39925;DHT22;25592;49.986;11.618;2023-01-20T08:53:17;3.50;99.90
39925;DHT22;25592;49.986;11.618;2023-01-20T08:56:02;3.60;99.90
39925;DHT22;25592;49.986;11.618;2023-01-20T08:58:48;3.60;99.90
39925;DHT22;25592;49.986;11.618;2023-01-20T09:01:34;3.60;99.90
39925;DHT22;25592;49.986;11.618;2023-01-20T09:04:22;3.70;99.90
39925;DHT22;25592;49.986;11.618;2023-01-20T09:07:11;3.70;99.90
39925;DHT22;25592;49.986;11.618;2023-01-20T09:09:56;3.80;99.90
39925;DHT22;25592;49.986;11.618;2023-01-20T09:12:42;3.80;99.90
39925;DHT22;25592;49.986;11.618;2023-01-20T09:15:27;3.90;99.90
39925;DHT22;25592;49.986;11.618;2023-01-20T09:18:12;3.90;99.90
39925;DHT22;25592;49.986;11.618;2023-01-20T09:20:59;3.90;99.90
39925;DHT22;25592;49.986;11.618;2023-01-20T09:23:44;3.90;99.90
39925;DHT22;25592;49.986;11.618;2023-01-20T09:26:32;3.90;99.90
39925;DHT22;25592;49.986;11.618;2023-01-20T09:29:23;3.90;99.90
39925;DHT22;25592;49.986;11.618;2023-01-20T09:32:10;4.00;99.90
39925;DHT22;25592;49.986;11.618;2023-01-20T09:34:56;4.00;99.90
39925;DHT22;25592;49.986;11.618;2023-01-20T09:37:42;4.00;99.90
39925;DHT22;25592;49.986;11.618;2023-01-20T09:44:41;4.20;99.90
39925;DHT22;25592;49.986;11.618;2023-01-20T09:47:30;4.10;99.90
39925;DHT22;25592;49.986;11.618;2023-01-20T09:56:46;4.10;99.90
39925;DHT22;25592;49.986;11.618;2023-01-20T09:59:39;4.20;99.90
39925;DHT22;25592;49.986;11.618;2023-01-20T10:02:30;4.20;99.90
39925;DHT22;25592;49.986;11.618;2023-01-20T10:05:19;4.30;99.90
39925;DHT22;25592;49.986;11.618;2023-01-20T10:11:08;4.40;99.90
39925;DHT22;25592;49.986;11.618;2023-01-20T10:17:27;4.50;99.90
39925;DHT22;25592;49.986;11.618;2023-01-20T10:20:36;4.50;99.90
39925;DHT22;25592;49.986;11.618;2023-01-20T10:23:41;4.50;99.90
39925;DHT22;25592;49.986;11.618;2023-01-20T10:26:48;4.60;99.90
39925;DHT22;25592;49.986;11.618;2023-01-20T10:29:38;4.60;99.90
39925;DHT22;25592;49.986;11.618;2023-01-20T10:32:33;4.60;99.90
39925;DHT22;25592;49.986;11.618;2023-01-20T10:35:26;4.60;99.90
39925;DHT22;25592;49.986;11.618;2023-01-20T10:38:20;4.50;99.90
39925;DHT22;25592;49.986;11.618;2023-01-20T10:41:58;4.60;99.90
39925;DHT22;25592;49.986;11.618;2023-01-20T10:44:21;4.60;99.90
39925;DHT22;25592;49.986;11.618;2023-01-20T10:47:14;4.60;99.90
39925;DHT22;25592;49.986;11.618;2023-01-20T10:53:04;4.50;99.90
39925;DHT22;25592;49.986;11.618;2023-01-20T10:59:02;4.40;99.90
39925;DHT22;25592;49.986;11.618;2023-01-20T11:01:50;4.40;99.90
39925;DHT22;25592;49.986;11.618;2023-01-20T11:04:53;4.50;99.90
39925;DHT22;25592;49.986;11.618;2023-01-20T11:07:40;4.40;99.90
39925;DHT22;25592;49.986;11.618;2023-01-20T11:10:28;4.40;99.90
39925;DHT22;25592;49.986;11.618;2023-01-20T11:13:13;4.40;99.90
39925;DHT22;25592;49.986;11.618;2023-01-20T11:16:02;4.40;99.90
39925;DHT22;25592;49.986;11.618;2023-01-20T11:21:39;4.30;99.90
39925;DHT22;25592;49.986;11.618;2023-01-20T11:24:37;4.30;99.90
39925;DHT22;25592;49.986;11.618;2023-01-20T11:27:27;4.40;99.90
39925;DHT22;25592;49.986;11.618;2023-01-20T11:30:25;4.40;99.90
39925;DHT22;25592;49.986;11.618;2023-01-20T11:33:23;4.40;99.90
39925;DHT22;25592;49.986;11.618;2023-01-20T11:36:18;4.30;99.90
39925;DHT22;25592;49.986;11.618;2023-01-20T11:39:06;4.30;99.90
39925;DHT22;25592;49.986;11.618;2023-01-20T11:45:02;4.30;99.90
39925;DHT22;25592;49.986;11.618;2023-01-20T11:48:16;4.40;99.90
39925;DHT22;25592;49.986;11.618;2023-01-20T11:51:03;4.30;99.90
39925;DHT22;25592;49.986;11.618;2023-01-20T11:53:48;4.30;99.90
39925;DHT22;25592;49.986;11.618;2023-01-20T11:56:39;4.40;99.90
39925;DHT22;25592;49.986;11.618;2023-01-20T11:59:30;4.50;99.90
39925;DHT22;25592;49.986;11.618;2023-01-20T12:02:22;4.40;99.90
39925;DHT22;25592;49.986;11.618;2023-01-20T12:05:15;4.20;99.90
39925;DHT22;25592;49.986;11.618;2023-01-20T12:08:03;4.20;99.90
39925;DHT22;25592;49.986;11.618;2023-01-20T12:10:50;4.20;99.90
39925;DHT22;25592;49.986;11.618;2023-01-20T12:13:40;4.20;99.90
39925;DHT22;25592;49.986;11.618;2023-01-20T12:20:14;4.20;99.90
39925;DHT22;25592;49.986;11.618;2023-01-20T12:23:13;4.20;99.90
39925;DHT22;25592;49.986;11.618;2023-01-20T12:26:05;4.30;99.90
39925;DHT22;25592;49.986;11.618;2023-01-20T12:28:58;4.30;99.90
39925;DHT22;25592;49.986;11.618;2023-01-20T12:31:46;4.40;99.90
39925;DHT22;25592;49.986;11.618;2023-01-20T12:34:33;4.40;99.90
39925;DHT22;25592;49.986;11.618;2023-01-20T12:40:25;4.30;99.90
39925;DHT22;25592;49.986;11.618;2023-01-20T12:43:37;4.40;99.90
39925;DHT22;25592;49.986;11.618;2023-01-20T12:46:44;4.40;99.90
39925;DHT22;25592;49.986;11.618;2023-01-20T12:49:59;4.50;99.90
39925;DHT22;25592;49.986;11.618;2023-01-20T12:52:59;4.50;99.90
39925;DHT22;25592;49.986;11.618;2023-01-20T12:56:09;4.50;99.90
39925;DHT22;25592;49.986;11.618;2023-01-20T12:59:15;4.50;99.90
39925;DHT22;25592;49.986;11.618;2023-01-20T13:02:38;4.40;99.90
39925;DHT22;25592;49.986;11.618;2023-01-20T13:05:46;4.40;99.90
39925;DHT22;25592;49.986;11.618;2023-01-20T13:15:28;4.40;99.90
39925;DHT22;25592;49.986;11.618;2023-01-20T13:18:43;4.40;99.90
39925;DHT22;25592;49.986;11.618;2023-01-20T13:21:33;4.40;99.90
39925;DHT22;25592;49.986;11.618;2023-01-20T13:24:19;4.40;99.90
39925;DHT22;25592;49.986;11.618;2023-01-20T13:27:15;4.40;99.90
39925;DHT22;25592;49.986;11.618;2023-01-20T13:30:04;4.40;99.90
39925;DHT22;25592;49.986;11.618;2023-01-20T13:33:01;4.40;99.90
39925;DHT22;25592;49.986;11.618;2023-01-20T13:35:50;4.40;99.90
39925;DHT22;25592;49.986;11.618;2023-01-20T13:38:35;4.50;99.90
39925;DHT22;25592;49.986;11.618;2023-01-20T13:41:50;4.50;99.90
39925;DHT22;25592;49.986;11.618;2023-01-20T13:44:37;4.50;99.90
39925;DHT22;25592;49.986;11.618;2023-01-20T13:50:42;4.50;99.90
39925;DHT22;25592;49.986;11.618;2023-01-20T13:53:28;4.50;99.90
39925;DHT22;25592;49.986;11.618;2023-01-20T13:56:28;4.60;99.90
39925;DHT22;25592;49.986;11.618;2023-01-20T13:59:13;4.60;99.90
39925;DHT22;25592;49.986;11.618;2023-01-20T14:02:17;4.60;99.90
39925;DHT22;25592;49.986;11.618;2023-01-20T14:05:02;4.60;99.90
39925;DHT22;25592;49.986;11.618;2023-01-20T14:07:48;4.70;99.90
39925;DHT22;25592;49.986;11.618;2023-01-20T14:10:33;4.70;99.90
39925;DHT22;25592;49.986;11.618;2023-01-20T14:13:22;4.60;99.90
39925;DHT22;25592;49.986;11.618;2023-01-20T14:16:24;4.60;99.90
39925;DHT22;25592;49.986;11.618;2023-01-20T14:19:27;4.60;99.90
39925;DHT22;25592;49.986;11.618;2023-01-20T14:22:26;4.60;99.90
39925;DHT22;25592;49.986;11.618;2023-01-20T14:25:25;4.60;99.90
39925;DHT22;25592;49.986;11.618;2023-01-20T14:28:17;4.60;99.90
39925;DHT22;25592;49.986;11.618;2023-01-20T14:31:15;4.60;99.90
39925;DHT22;25592;49.986;11.618;2023-01-20T14:34:26;4.50;99.90
39925;DHT22;25592;49.986;11.618;2023-01-20T14:42:57;4.50;99.90
39925;DHT22;25592;49.986;11.618;2023-01-20T14:45:46;4.50;99.90
39925;DHT22;25592;49.986;11.618;2023-01-20T14:48:32;4.50;99.90
39925;DHT22;25592;49.986;11.618;2023-01-20T14:51:20;4.60;99.90
39925;DHT22;25592;49.986;11.618;2023-01-20T14:54:28;4.70;99.90
39925;DHT22;25592;49.986;11.618;2023-01-20T15:08:53;4.50;99.90
39925;DHT22;25592;49.986;11.618;2023-01-20T15:11:51;4.50;99.90
39925;DHT22;25592;49.986;11.618;2023-01-20T15:20:57;4.50;99.90
39925;DHT22;25592;49.986;11.618;2023-01-20T15:24:12;4.50;99.90
39925;DHT22;25592;49.986;11.618;2023-01-20T15:27:00;4.40;99.90
39925;DHT22;25592;49.986;11.618;2023-01-20T15:30:16;4.30;99.90
39925;DHT22;25592;49.986;11.618;2023-01-20T15:33:06;4.30;99.90
39925;DHT22;25592;49.986;11.618;2023-01-20T15:35:54;4.30;99.90
39925;DHT22;25592;49.986;11.618;2023-01-20T15:38:39;4.20;99.90
39925;DHT22;25592;49.986;11.618;2023-01-20T15:41:25;4.20;99.90
39925;DHT22;25592;49.986;11.618;2023-01-20T15:44:10;4.20;99.90
39925;DHT22;25592;49.986;11.618;2023-01-20T15:46:57;4.10;99.90
39925;DHT22;25592;49.986;11.618;2023-01-20T15:49:42;4.10;99.90
39925;DHT22;25592;49.986;11.618;2023-01-20T15:52:27;4.00;99.90
39925;DHT22;25592;49.986;11.618;2023-01-20T15:55:14;4.40;99.90
39925;DHT22;25592;49.986;11.618;2023-01-20T15:58:00;4.50;99.90
39925;DHT22;25592;49.986;11.618;2023-01-20T16:00:45;4.40;99.90
39925;DHT22;25592;49.986;11.618;2023-01-20T16:03:30;4.20;99.90
39925;DHT22;25592;49.986;11.618;2023-01-20T16:06:20;4.20;99.90
39925;DHT22;25592;49.986;11.618;2023-01-20T16:09:26;4.10;99.90
39925;DHT22;25592;49.986;11.618;2023-01-20T16:12:15;4.00;99.90
39925;DHT22;25592;49.986;11.618;2023-01-20T16:15:01;4.00;99.90
39925;DHT22;25592;49.986;11.618;2023-01-20T16:17:46;3.90;99.90
39925;DHT22;25592;49.986;11.618;2023-01-20T16:20:33;3.90;99.90
39925;DHT22;25592;49.986;11.618;2023-01-20T16:23:19;3.90;99.90
39925;DHT22;25592;49.986;11.618;2023-01-20T16:26:22;3.90;99.90
39925;DHT22;25592;49.986;11.618;2023-01-20T16:29:08;3.90;99.90
39925;DHT22;25592;49.986;11.618;2023-01-20T16:31:53;3.80;99.90
39925;DHT22;25592;49.986;11.618;2023-01-20T16:34:38;3.80;99.90
39925;DHT22;25592;49.986;11.618;2023-01-20T16:37:24;3.80;99.90
39925;DHT22;25592;49.986;11.618;2023-01-20T16:40:12;3.80;99.90
39925;DHT22;25592;49.986;11.618;2023-01-20T16:42:59;3.80;99.90
39925;DHT22;25592;49.986;11.618;2023-01-20T16:45:47;3.80;99.90
39925;DHT22;25592;49.986;11.618;2023-01-20T16:48:36;3.80;99.90
39925;DHT22;25592;49.986;11.618;2023-01-20T16:51:22;3.70;99.90
39925;DHT22;25592;49.986;11.618;2023-01-20T16:54:10;3.80;99.90
39925;DHT22;25592;49.986;11.618;2023-01-20T16:56:55;3.80;99.90
39925;DHT22;25592;49.986;11.618;2023-01-20T16:59:40;3.70;99.90
39925;DHT22;25592;49.986;11.618;2023-01-20T17:02:26;3.80;99.90
39925;DHT22;25592;49.986;11.618;2023-01-20T17:05:11;3.70;99.90
39925;DHT22;25592;49.986;11.618;2023-01-20T17:07:57;3.70;99.90
39925;DHT22;25592;49.986;11.618;2023-01-20T17:10:46;3.70;99.90
39925;DHT22;25592;49.986;11.618;2023-01-20T17:13:31;3.60;99.90
39925;DHT22;25592;49.986;11.618;2023-01-20T17:16:17;3.60;99.90
39925;DHT22;25592;49.986;11.618;2023-01-20T17:19:04;3.60;99.90
39925;DHT22;25592;49.986;11.618;2023-01-20T17:21:50;3.60;99.90
39925;DHT22;25592;49.986;11.618;2023-01-20T17:24:35;3.50;99.90
39925;DHT22;25592;49.986;11.618;2023-01-20T17:27:23;3.50;99.90
39925;DHT22;25592;49.986;11.618;2023-01-20T17:30:09;3.50;99.90
39925;DHT22;25592;49.986;11.618;2023-01-20T17:32:54;3.50;99.90
39925;DHT22;25592;49.986;11.618;2023-01-20T17:35:40;3.50;99.90
39925;DHT22;25592;49.986;11.618;2023-01-20T17:38:28;3.40;99.90
39925;DHT22;25592;49.986;11.618;2023-01-20T17:41:14;3.50;99.90
39925;DHT22;25592;49.986;11.618;2023-01-20T17:43:59;3.50;99.90
39925;DHT22;25592;49.986;11.618;2023-01-20T17:46:46;3.50;99.90
39925;DHT22;25592;49.986;11.618;2023-01-20T17:49:31;3.40;99.90
39925;DHT22;25592;49.986;11.618;2023-01-20T17:52:17;3.40;99.90
39925;DHT22;25592;49.986;11.618;2023-01-20T17:55:04;3.30;99.90
39925;DHT22;25592;49.986;11.618;2023-01-20T17:57:50;3.30;99.90
39925;DHT22;25592;49.986;11.618;2023-01-20T18:00:35;3.40;99.90
39925;DHT22;25592;49.986;11.618;2023-01-20T18:03:21;3.30;99.90
39925;DHT22;25592;49.986;11.618;2023-01-20T18:06:07;3.30;99.90
39925;DHT22;25592;49.986;11.618;2023-01-20T18:08:54;3.30;99.90
39925;DHT22;25592;49.986;11.618;2023-01-20T18:11:40;3.20;99.90
39925;DHT22;25592;49.986;11.618;2023-01-20T18:14:27;3.20;99.90
39925;DHT22;25592;49.986;11.618;2023-01-20T18:17:12;3.10;99.90
39925;DHT22;25592;49.986;11.618;2023-01-20T18:19:58;3.20;99.90
39925;DHT22;25592;49.986;11.618;2023-01-20T18:22:47;3.20;99.90
39925;DHT22;25592;49.986;11.618;2023-01-20T18:25:33;3.10;99.90
39925;DHT22;25592;49.986;11.618;2023-01-20T18:28:19;3.10;99.90
39925;DHT22;25592;49.986;11.618;2023-01-20T18:31:10;3.00;99.90
39925;DHT22;25592;49.986;11.618;2023-01-20T18:34:01;3.10;99.90
39925;DHT22;25592;49.986;11.618;2023-01-20T18:36:47;3.00;99.90
39925;DHT22;25592;49.986;11.618;2023-01-20T18:39:33;3.10;99.90
39925;DHT22;25592;49.986;11.618;2023-01-20T18:42:18;3.00;99.90
39925;DHT22;25592;49.986;11.618;2023-01-20T18:45:04;3.00;99.90
39925;DHT22;25592;49.986;11.618;2023-01-20T18:47:49;2.80;99.90
39925;DHT22;25592;49.986;11.618;2023-01-20T18:50:35;2.80;99.90
39925;DHT22;25592;49.986;11.618;2023-01-20T18:53:20;2.80;99.90
39925;DHT22;25592;49.986;11.618;2023-01-20T18:56:07;2.90;99.90
39925;DHT22;25592;49.986;11.618;2023-01-20T18:58:53;2.90;99.90
39925;DHT22;25592;49.986;11.618;2023-01-20T19:01:40;2.90;99.90
39925;DHT22;25592;49.986;11.618;2023-01-20T19:04:25;2.90;99.90
39925;DHT22;25592;49.986;11.618;2023-01-20T19:07:11;2.90;99.90
39925;DHT22;25592;49.986;11.618;2023-01-20T19:09:56;2.90;99.90
39925;DHT22;25592;49.986;11.618;2023-01-20T19:12:41;2.90;99.90
39925;DHT22;25592;49.986;11.618;2023-01-20T19:15:27;2.80;99.90
39925;DHT22;25592;49.986;11.618;2023-01-20T19:18:12;2.80;99.90
39925;DHT22;25592;49.986;11.618;2023-01-20T19:21:11;2.80;99.90
39925;DHT22;25592;49.986;11.618;2023-01-20T19:23:58;2.80;99.90